Grand Junction, CO

1:47 AM MDT on August 23, 2014 (GMT -0600)
Garfield County Regional | Change Station
CLOSE
Current Station
Airport
Location: Rifle,
Elevation: 5541 ft
Nearby Weather Stations

Elev 5541 ft 39.52 °N, 107.73 °W | Updated 54 minutes ago

Mostly Cloudy
Mostly Cloudy
56 °F
Feels Like 56 °F
N
0
Wind Variable Wind from North

Today
High -- | Low -- °F
--% Chance of Precip.
Yesterday
High -- | Low -- °F
Precip. -- in
6:34 AM 7:58 PM
Waning Crescent, 5% visible
Pressure 29.88 in
Visibility 10.0 miles
Clouds Mostly Cloudy 12000 ft
Dew Point 52 °F
Humidity 87%
Rainfall 0.00 in
Snow Depth Not available.
UV 0 out of 12
Pollen 9.10 out of 12
Air Quality Not available.
Flu Activity Not available.
METAR KRIL 230653Z AUTO 00000KT 10SM BKN120 13/11 A3005 RMK AO2 SLP118 T01330111 402500133

More Conditions Fewer Conditions

Pressure 29.88 in
Visibility 10.0 miles
Clouds Mostly Cloudy 12000 ft
Dew Point 52 °F
Humidity 87%
Rainfall 0.00 in
Snow Depth Not available.
UV 0 out of 12
Pollen 9.10 out of 12
Air Quality Not available.
Flu Activity Not available.
METAR KRIL 230653Z AUTO 00000KT 10SM BKN120 13/11 A3005 RMK AO2 SLP118 T01330111 402500133

More Conditions Fewer Conditions

10-Day Weather Forecast

Almanac

Astronomy

Aug. 23, 2014 Rise Set
Actual Time 6:34 AM MDT 7:58 PM MDT
Civil Twilight 6:06 AM MDT 8:25 PM MDT
Nautical Twilight 5:33 AM MDT 8:59 PM MDT
Astronomical Twilight 4:57 AM MDT 9:34 PM MDT
Moon 4:54 AM MDT 6:44 PM MDT
Length of Visible Light 14h 19m
Length of Day
13h 23m
Tomorrow will be 2m 21s shorter.
Waning Crescent, 5% of the Moon is Illuminated
Today
Waning Crescent
Aug 25
New
Sep 2
First Quarter
Sep 8
Full
Sep 15
Last Quarter

Today's Extremes

State Highs State Lows

Community

WunderPhotos

Upload Photos

1,746,384 photos uploaded!

WunderBlogs® & News

By Dr. Jeff Masters
Director of Meteorology, Weather Underground
By Kari Strenfel
Meteorologist, Weather Underground
By Christopher C. Burt
Weather Historian, Weather Underground
August 23, 2014
August 23, 2014
August 22, 2014

Nearby

Snow Depth

Station Depth Elevation
Mesa Lakes 0 in 10000 ft
Park Reservoir 0 in 9960 ft
Columbine Pass 0 in 9400 ft
Overland Reservoir 0 in 9880 ft
McClure Pass 0 in 9500 ft

Earthquake Activity

City Distance Mag. Time & Date
No recent earthquake activity has been reported nearby.
Minimum magnitude displayed is 2.5.

Coastal Water Temperatures

Place Temperature
No Stations Reporting

Nearby Weather Stations